sensor_id;sensor_type;location;lat;lon;timestamp;temperature;humidity
54898;DHT22;40800;52.704;6.398;2022-10-17T00:00:37;14.30;99.90
54898;DHT22;40800;52.704;6.398;2022-10-17T00:03:03;14.50;99.90
54898;DHT22;40800;52.704;6.398;2022-10-17T00:05:29;13.60;99.90
54898;DHT22;40800;52.704;6.398;2022-10-17T00:07:54;14.30;99.90
54898;DHT22;40800;52.704;6.398;2022-10-17T00:10:20;14.30;99.90
54898;DHT22;40800;52.704;6.398;2022-10-17T00:12:46;13.60;99.90
54898;DHT22;40800;52.704;6.398;2022-10-17T00:15:17;14.40;99.90
54898;DHT22;40800;52.704;6.398;2022-10-17T00:17:43;14.20;99.90
54898;DHT22;40800;52.704;6.398;2022-10-17T00:20:09;14.20;99.90
54898;DHT22;40800;52.704;6.398;2022-10-17T00:22:35;13.50;99.90
54898;DHT22;40800;52.704;6.398;2022-10-17T00:25:01;13.60;99.90
54898;DHT22;40800;52.704;6.398;2022-10-17T00:27:26;13.90;99.90
54898;DHT22;40800;52.704;6.398;2022-10-17T00:29:52;13.70;99.90
54898;DHT22;40800;52.704;6.398;2022-10-17T00:32:18;13.50;99.90
54898;DHT22;40800;52.704;6.398;2022-10-17T00:34:44;13.90;99.90
54898;DHT22;40800;52.704;6.398;2022-10-17T00:37:10;14.10;99.90
54898;DHT22;40800;52.704;6.398;2022-10-17T00:39:36;14.40;99.90
54898;DHT22;40800;52.704;6.398;2022-10-17T00:42:02;14.40;99.90
54898;DHT22;40800;52.704;6.398;2022-10-17T00:47:03;13.60;99.90
54898;DHT22;40800;52.704;6.398;2022-10-17T00:49:33;13.80;99.90
54898;DHT22;40800;52.704;6.398;2022-10-17T00:52:03;14.40;99.90
54898;DHT22;40800;52.704;6.398;2022-10-17T00:54:33;14.30;99.90
54898;DHT22;40800;52.704;6.398;2022-10-17T00:57:00;14.40;99.90
54898;DHT22;40800;52.704;6.398;2022-10-17T00:59:26;14.40;99.90
54898;DHT22;40800;52.704;6.398;2022-10-17T01:02:13;14.40;99.90
54898;DHT22;40800;52.704;6.398;2022-10-17T01:04:41;13.70;99.90
54898;DHT22;40800;52.704;6.398;2022-10-17T01:07:08;14.40;99.90
54898;DHT22;40800;52.704;6.398;2022-10-17T01:09:35;14.00;99.90
54898;DHT22;40800;52.704;6.398;2022-10-17T01:18:00;13.50;99.90
54898;DHT22;40800;52.704;6.398;2022-10-17T01:32:34;14.10;99.90
54898;DHT22;40800;52.704;6.398;2022-10-17T01:35:21;13.70;99.90
54898;DHT22;40800;52.704;6.398;2022-10-17T01:37:52;13.40;99.90
54898;DHT22;40800;52.704;6.398;2022-10-17T01:40:25;13.70;99.90
54898;DHT22;40800;52.704;6.398;2022-10-17T01:43:49;13.90;99.90
54898;DHT22;40800;52.704;6.398;2022-10-17T01:46:02;13.20;99.90
54898;DHT22;40800;52.704;6.398;2022-10-17T01:48:34;13.60;99.90
54898;DHT22;40800;52.704;6.398;2022-10-17T01:51:10;13.30;99.90
54898;DHT22;40800;52.704;6.398;2022-10-17T01:53:41;12.90;99.90
54898;DHT22;40800;52.704;6.398;2022-10-17T01:56:10;13.80;99.90
54898;DHT22;40800;52.704;6.398;2022-10-17T01:58:48;13.10;99.90
54898;DHT22;40800;52.704;6.398;2022-10-17T02:01:15;13.90;99.90
54898;DHT22;40800;52.704;6.398;2022-10-17T02:03:42;13.80;99.90
54898;DHT22;40800;52.704;6.398;2022-10-17T02:06:09;13.00;99.90
54898;DHT22;40800;52.704;6.398;2022-10-17T02:08:45;13.70;99.90
54898;DHT22;40800;52.704;6.398;2022-10-17T02:11:23;13.90;99.90
54898;DHT22;40800;52.704;6.398;2022-10-17T02:14:42;13.10;99.90
54898;DHT22;40800;52.704;6.398;2022-10-17T02:17:09;13.40;99.90
54898;DHT22;40800;52.704;6.398;2022-10-17T02:19:57;13.00;99.90
54898;DHT22;40800;52.704;6.398;2022-10-17T02:23:07;13.80;99.90
54898;DHT22;40800;52.704;6.398;2022-10-17T02:25:47;13.50;99.90
54898;DHT22;40800;52.704;6.398;2022-10-17T02:28:24;13.20;99.90
54898;DHT22;40800;52.704;6.398;2022-10-17T02:31:10;13.90;99.90
54898;DHT22;40800;52.704;6.398;2022-10-17T02:33:46;13.20;99.90
54898;DHT22;40800;52.704;6.398;2022-10-17T02:36:18;13.50;99.90
54898;DHT22;40800;52.704;6.398;2022-10-17T02:38:46;13.00;99.90
54898;DHT22;40800;52.704;6.398;2022-10-17T02:41:15;13.50;99.90
54898;DHT22;40800;52.704;6.398;2022-10-17T02:43:43;13.90;99.90
54898;DHT22;40800;52.704;6.398;2022-10-17T02:46:12;13.10;99.90
54898;DHT22;40800;52.704;6.398;2022-10-17T02:48:51;13.90;99.90
54898;DHT22;40800;52.704;6.398;2022-10-17T02:51:38;13.30;99.90
54898;DHT22;40800;52.704;6.398;2022-10-17T02:56:53;13.20;99.90
54898;DHT22;40800;52.704;6.398;2022-10-17T02:59:21;13.20;99.90
54898;DHT22;40800;52.704;6.398;2022-10-17T03:01:49;13.70;99.90
54898;DHT22;40800;52.704;6.398;2022-10-17T03:04:16;13.90;99.90
54898;DHT22;40800;52.704;6.398;2022-10-17T03:06:43;13.30;99.90
54898;DHT22;40800;52.704;6.398;2022-10-17T03:09:09;13.30;99.90
54898;DHT22;40800;52.704;6.398;2022-10-17T03:11:35;13.40;99.90
54898;DHT22;40800;52.704;6.398;2022-10-17T03:14:00;13.70;99.90
54898;DHT22;40800;52.704;6.398;2022-10-17T03:16:26;14.10;99.90
54898;DHT22;40800;52.704;6.398;2022-10-17T03:18:52;13.30;99.90
54898;DHT22;40800;52.704;6.398;2022-10-17T03:21:17;13.20;99.90
54898;DHT22;40800;52.704;6.398;2022-10-17T03:23:43;14.00;99.90
54898;DHT22;40800;52.704;6.398;2022-10-17T03:26:08;13.40;99.90
54898;DHT22;40800;52.704;6.398;2022-10-17T03:28:34;14.00;99.90
54898;DHT22;40800;52.704;6.398;2022-10-17T03:31:06;13.20;99.90
54898;DHT22;40800;52.704;6.398;2022-10-17T03:33:32;13.90;99.90
54898;DHT22;40800;52.704;6.398;2022-10-17T03:35:57;13.60;99.90
54898;DHT22;40800;52.704;6.398;2022-10-17T03:38:23;13.20;99.90
54898;DHT22;40800;52.704;6.398;2022-10-17T03:40:55;13.20;99.90
54898;DHT22;40800;52.704;6.398;2022-10-17T03:43:21;13.60;99.90
54898;DHT22;40800;52.704;6.398;2022-10-17T03:45:46;13.40;99.90
54898;DHT22;40800;52.704;6.398;2022-10-17T03:48:12;13.60;99.90
54898;DHT22;40800;52.704;6.398;2022-10-17T03:50:37;14.00;99.90
54898;DHT22;40800;52.704;6.398;2022-10-17T03:53:03;13.50;99.90
54898;DHT22;40800;52.704;6.398;2022-10-17T03:55:29;13.40;99.90
54898;DHT22;40800;52.704;6.398;2022-10-17T03:57:54;13.40;99.90
54898;DHT22;40800;52.704;6.398;2022-10-17T04:00:20;13.60;99.90
54898;DHT22;40800;52.704;6.398;2022-10-17T04:02:45;14.40;99.90
54898;DHT22;40800;52.704;6.398;2022-10-17T04:05:11;14.60;99.90
54898;DHT22;40800;52.704;6.398;2022-10-17T04:07:36;13.70;99.90
54898;DHT22;40800;52.704;6.398;2022-10-17T04:10:03;14.30;99.90
54898;DHT22;40800;52.704;6.398;2022-10-17T04:12:29;13.60;99.90
54898;DHT22;40800;52.704;6.398;2022-10-17T04:14:55;13.80;99.90
54898;DHT22;40800;52.704;6.398;2022-10-17T04:17:20;13.90;99.90
54898;DHT22;40800;52.704;6.398;2022-10-17T04:19:48;14.60;99.90
54898;DHT22;40800;52.704;6.398;2022-10-17T04:22:13;14.70;99.90
54898;DHT22;40800;52.704;6.398;2022-10-17T04:24:39;14.50;99.90
54898;DHT22;40800;52.704;6.398;2022-10-17T04:27:05;14.00;99.90
54898;DHT22;40800;52.704;6.398;2022-10-17T04:29:30;14.40;99.90
54898;DHT22;40800;52.704;6.398;2022-10-17T04:31:56;15.00;99.90
54898;DHT22;40800;52.704;6.398;2022-10-17T04:34:21;14.90;99.90
54898;DHT22;40800;52.704;6.398;2022-10-17T04:36:47;14.70;99.90
54898;DHT22;40800;52.704;6.398;2022-10-17T04:39:13;14.20;99.90
54898;DHT22;40800;52.704;6.398;2022-10-17T04:41:38;15.10;99.90
54898;DHT22;40800;52.704;6.398;2022-10-17T04:44:04;14.90;99.90
54898;DHT22;40800;52.704;6.398;2022-10-17T04:46:32;14.70;99.90
54898;DHT22;40800;52.704;6.398;2022-10-17T04:48:57;14.30;99.90
54898;DHT22;40800;52.704;6.398;2022-10-17T04:51:23;14.30;99.90
54898;DHT22;40800;52.704;6.398;2022-10-17T04:53:48;15.00;99.90
54898;DHT22;40800;52.704;6.398;2022-10-17T04:56:17;14.10;99.90
54898;DHT22;40800;52.704;6.398;2022-10-17T04:58:43;14.30;99.90
54898;DHT22;40800;52.704;6.398;2022-10-17T05:01:12;14.10;99.90
54898;DHT22;40800;52.704;6.398;2022-10-17T05:03:38;15.10;99.90
54898;DHT22;40800;52.704;6.398;2022-10-17T05:06:09;14.30;99.90
54898;DHT22;40800;52.704;6.398;2022-10-17T05:08:35;15.00;99.90
54898;DHT22;40800;52.704;6.398;2022-10-17T05:11:01;14.50;99.90
54898;DHT22;40800;52.704;6.398;2022-10-17T05:13:27;14.40;99.90
54898;DHT22;40800;52.704;6.398;2022-10-17T05:15:53;15.10;99.90
54898;DHT22;40800;52.704;6.398;2022-10-17T05:18:18;15.20;99.90
54898;DHT22;40800;52.704;6.398;2022-10-17T05:20:44;15.40;99.90
54898;DHT22;40800;52.704;6.398;2022-10-17T05:23:09;14.40;99.90
54898;DHT22;40800;52.704;6.398;2022-10-17T05:25:35;14.40;99.90
54898;DHT22;40800;52.704;6.398;2022-10-17T05:28:01;14.40;99.90
54898;DHT22;40800;52.704;6.398;2022-10-17T05:30:26;14.50;99.90
54898;DHT22;40800;52.704;6.398;2022-10-17T05:32:53;14.90;99.90
54898;DHT22;40800;52.704;6.398;2022-10-17T05:35:19;15.20;99.90
54898;DHT22;40800;52.704;6.398;2022-10-17T05:37:45;14.40;99.90
54898;DHT22;40800;52.704;6.398;2022-10-17T05:40:11;14.50;99.90
54898;DHT22;40800;52.704;6.398;2022-10-17T05:42:40;15.40;99.90
54898;DHT22;40800;52.704;6.398;2022-10-17T05:45:09;14.70;99.90
54898;DHT22;40800;52.704;6.398;2022-10-17T05:47:35;15.40;99.90
54898;DHT22;40800;52.704;6.398;2022-10-17T05:50:01;15.30;99.90
54898;DHT22;40800;52.704;6.398;2022-10-17T05:52:26;14.50;99.90
54898;DHT22;40800;52.704;6.398;2022-10-17T05:54:52;14.70;99.90
54898;DHT22;40800;52.704;6.398;2022-10-17T05:57:18;14.80;99.90
54898;DHT22;40800;52.704;6.398;2022-10-17T05:59:43;14.80;99.90
54898;DHT22;40800;52.704;6.398;2022-10-17T06:02:11;15.40;99.90
54898;DHT22;40800;52.704;6.398;2022-10-17T06:04:37;15.80;99.90
54898;DHT22;40800;52.704;6.398;2022-10-17T06:07:03;14.80;99.90
54898;DHT22;40800;52.704;6.398;2022-10-17T06:09:29;15.20;99.90
54898;DHT22;40800;52.704;6.398;2022-10-17T06:11:55;15.60;99.90
54898;DHT22;40800;52.704;6.398;2022-10-17T06:14:20;15.70;99.90
54898;DHT22;40800;52.704;6.398;2022-10-17T06:16:46;15.80;99.90
54898;DHT22;40800;52.704;6.398;2022-10-17T06:19:11;15.90;99.90
54898;DHT22;40800;52.704;6.398;2022-10-17T06:21:37;14.90;99.90
54898;DHT22;40800;52.704;6.398;2022-10-17T06:24:03;14.90;99.90
54898;DHT22;40800;52.704;6.398;2022-10-17T06:26:29;15.60;99.90
54898;DHT22;40800;52.704;6.398;2022-10-17T06:28:54;15.00;99.90
54898;DHT22;40800;52.704;6.398;2022-10-17T06:31:20;15.80;99.90
54898;DHT22;40800;52.704;6.398;2022-10-17T06:33:45;15.10;99.90
54898;DHT22;40800;52.704;6.398;2022-10-17T06:36:13;15.20;99.90
54898;DHT22;40800;52.704;6.398;2022-10-17T06:38:39;15.20;99.90
54898;DHT22;40800;52.704;6.398;2022-10-17T06:41:07;16.00;99.90
54898;DHT22;40800;52.704;6.398;2022-10-17T06:43:36;16.10;99.90
54898;DHT22;40800;52.704;6.398;2022-10-17T06:46:03;15.30;99.90
54898;DHT22;40800;52.704;6.398;2022-10-17T06:48:28;15.50;99.90
54898;DHT22;40800;52.704;6.398;2022-10-17T06:51:00;15.30;99.90
54898;DHT22;40800;52.704;6.398;2022-10-17T06:53:27;16.00;99.90
54898;DHT22;40800;52.704;6.398;2022-10-17T06:55:53;16.50;99.90
54898;DHT22;40800;52.704;6.398;2022-10-17T06:58:20;15.50;99.90
54898;DHT22;40800;52.704;6.398;2022-10-17T07:00:45;15.80;99.90
54898;DHT22;40800;52.704;6.398;2022-10-17T07:03:11;15.50;99.90
54898;DHT22;40800;52.704;6.398;2022-10-17T07:05:36;17.00;99.90
54898;DHT22;40800;52.704;6.398;2022-10-17T07:08:03;16.90;99.90
54898;DHT22;40800;52.704;6.398;2022-10-17T07:10:29;15.80;99.90
54898;DHT22;40800;52.704;6.398;2022-10-17T07:12:55;16.60;99.90
54898;DHT22;40800;52.704;6.398;2022-10-17T07:15:20;16.30;99.90
54898;DHT22;40800;52.704;6.398;2022-10-17T07:17:49;16.00;99.90
54898;DHT22;40800;52.704;6.398;2022-10-17T07:20:15;17.20;99.90
54898;DHT22;40800;52.704;6.398;2022-10-17T07:22:40;15.90;99.90
54898;DHT22;40800;52.704;6.398;2022-10-17T07:25:07;16.30;99.90
54898;DHT22;40800;52.704;6.398;2022-10-17T07:27:33;16.10;99.90
54898;DHT22;40800;52.704;6.398;2022-10-17T07:29:58;16.20;99.90
54898;DHT22;40800;52.704;6.398;2022-10-17T07:32:24;16.20;99.90
54898;DHT22;40800;52.704;6.398;2022-10-17T07:34:49;17.40;99.90
54898;DHT22;40800;52.704;6.398;2022-10-17T07:37:15;16.40;99.90
54898;DHT22;40800;52.704;6.398;2022-10-17T07:39:41;17.80;99.90
54898;DHT22;40800;52.704;6.398;2022-10-17T07:42:06;17.50;99.90
54898;DHT22;40800;52.704;6.398;2022-10-17T07:44:32;17.60;99.90
54898;DHT22;40800;52.704;6.398;2022-10-17T07:46:59;16.40;99.90
54898;DHT22;40800;52.704;6.398;2022-10-17T07:49:25;16.30;99.90
54898;DHT22;40800;52.704;6.398;2022-10-17T07:51:50;17.60;99.90
54898;DHT22;40800;52.704;6.398;2022-10-17T07:54:16;17.70;99.90
54898;DHT22;40800;52.704;6.398;2022-10-17T07:56:42;16.70;99.90
54898;DHT22;40800;52.704;6.398;2022-10-17T07:59:07;17.50;99.90
54898;DHT22;40800;52.704;6.398;2022-10-17T08:01:33;17.60;99.90
54898;DHT22;40800;52.704;6.398;2022-10-17T08:03:59;16.90;99.90
54898;DHT22;40800;52.704;6.398;2022-10-17T08:06:24;16.70;99.90
54898;DHT22;40800;52.704;6.398;2022-10-17T08:08:50;17.10;99.90
54898;DHT22;40800;52.704;6.398;2022-10-17T08:11:15;16.60;99.90
54898;DHT22;40800;52.704;6.398;2022-10-17T08:13:41;17.00;99.90
54898;DHT22;40800;52.704;6.398;2022-10-17T08:16:09;17.40;99.90
54898;DHT22;40800;52.704;6.398;2022-10-17T08:18:36;17.50;99.90
54898;DHT22;40800;52.704;6.398;2022-10-17T08:21:04;16.50;99.90
54898;DHT22;40800;52.704;6.398;2022-10-17T08:23:33;16.60;99.90
54898;DHT22;40800;52.704;6.398;2022-10-17T08:25:59;17.50;99.90
54898;DHT22;40800;52.704;6.398;2022-10-17T08:28:25;16.30;99.90
54898;DHT22;40800;52.704;6.398;2022-10-17T08:30:51;16.40;99.90
54898;DHT22;40800;52.704;6.398;2022-10-17T08:33:16;16.90;99.90
54898;DHT22;40800;52.704;6.398;2022-10-17T08:35:42;16.40;99.90
54898;DHT22;40800;52.704;6.398;2022-10-17T08:38:07;16.50;99.90
54898;DHT22;40800;52.704;6.398;2022-10-17T08:40:33;16.70;99.90
54898;DHT22;40800;52.704;6.398;2022-10-17T08:45:56;16.60;99.90
54898;DHT22;40800;52.704;6.398;2022-10-17T08:48:26;16.80;99.90
54898;DHT22;40800;52.704;6.398;2022-10-17T08:51:11;16.50;99.90
54898;DHT22;40800;52.704;6.398;2022-10-17T08:56:33;17.30;99.90
54898;DHT22;40800;52.704;6.398;2022-10-17T08:59:05;16.60;99.90
54898;DHT22;40800;52.704;6.398;2022-10-17T09:01:51;17.70;99.90
54898;DHT22;40800;52.704;6.398;2022-10-17T09:04:52;16.70;99.90
54898;DHT22;40800;52.704;6.398;2022-10-17T09:07:28;16.70;99.90
54898;DHT22;40800;52.704;6.398;2022-10-17T09:10:17;17.80;99.90
54898;DHT22;40800;52.704;6.398;2022-10-17T09:15:59;17.70;99.90
54898;DHT22;40800;52.704;6.398;2022-10-17T09:18:35;17.70;99.90
54898;DHT22;40800;52.704;6.398;2022-10-17T09:23:58;17.90;99.90
54898;DHT22;40800;52.704;6.398;2022-10-17T09:26:25;17.10;99.90
54898;DHT22;40800;52.704;6.398;2022-10-17T09:28:55;17.80;99.90
54898;DHT22;40800;52.704;6.398;2022-10-17T09:31:25;17.90;99.90
54898;DHT22;40800;52.704;6.398;2022-10-17T09:33:55;17.60;99.90
54898;DHT22;40800;52.704;6.398;2022-10-17T09:36:33;17.80;99.90
54898;DHT22;40800;52.704;6.398;2022-10-17T09:39:00;17.90;99.90
54898;DHT22;40800;52.704;6.398;2022-10-17T09:41:34;17.00;99.90
54898;DHT22;40800;52.704;6.398;2022-10-17T09:46:38;17.70;99.90
54898;DHT22;40800;52.704;6.398;2022-10-17T09:49:15;16.60;99.90
54898;DHT22;40800;52.704;6.398;2022-10-17T09:51:42;18.00;99.90
54898;DHT22;40800;52.704;6.398;2022-10-17T09:54:23;17.00;99.90
54898;DHT22;40800;52.704;6.398;2022-10-17T09:57:16;16.70;99.90
54898;DHT22;40800;52.704;6.398;2022-10-17T09:59:46;17.40;99.90
54898;DHT22;40800;52.704;6.398;2022-10-17T10:05:02;17.60;99.90
54898;DHT22;40800;52.704;6.398;2022-10-17T10:07:31;16.80;99.90
54898;DHT22;40800;52.704;6.398;2022-10-17T10:09:58;17.90;99.90
54898;DHT22;40800;52.704;6.398;2022-10-17T10:12:26;17.30;99.90
54898;DHT22;40800;52.704;6.398;2022-10-17T10:14:53;17.60;99.90
54898;DHT22;40800;52.704;6.398;2022-10-17T10:19:52;17.40;99.90
54898;DHT22;40800;52.704;6.398;2022-10-17T10:22:19;17.00;99.90
54898;DHT22;40800;52.704;6.398;2022-10-17T10:25:06;16.70;99.90
54898;DHT22;40800;52.704;6.398;2022-10-17T10:27:32;17.80;99.90
54898;DHT22;40800;52.704;6.398;2022-10-17T10:29:57;16.70;99.90
54898;DHT22;40800;52.704;6.398;2022-10-17T10:32:24;17.20;99.90
54898;DHT22;40800;52.704;6.398;2022-10-17T10:35:02;17.60;99.90
54898;DHT22;40800;52.704;6.398;2022-10-17T10:37:40;17.50;99.90
54898;DHT22;40800;52.704;6.398;2022-10-17T10:42:39;16.80;99.90
54898;DHT22;40800;52.704;6.398;2022-10-17T10:45:14;17.50;99.90
54898;DHT22;40800;52.704;6.398;2022-10-17T10:50:39;16.90;99.90
54898;DHT22;40800;52.704;6.398;2022-10-17T10:56:00;17.50;99.90
54898;DHT22;40800;52.704;6.398;2022-10-17T11:01:10;17.80;99.90
54898;DHT22;40800;52.704;6.398;2022-10-17T11:06:28;17.00;99.90
54898;DHT22;40800;52.704;6.398;2022-10-17T11:11:32;17.80;99.90
54898;DHT22;40800;52.704;6.398;2022-10-17T11:14:17;17.70;99.90
54898;DHT22;40800;52.704;6.398;2022-10-17T11:16:55;17.20;99.90
54898;DHT22;40800;52.704;6.398;2022-10-17T11:19:31;18.00;99.90
54898;DHT22;40800;52.704;6.398;2022-10-17T11:22:14;17.30;99.90
54898;DHT22;40800;52.704;6.398;2022-10-17T11:27:47;18.00;99.90
54898;DHT22;40800;52.704;6.398;2022-10-17T11:30:14;16.90;99.90
54898;DHT22;40800;52.704;6.398;2022-10-17T11:32:48;16.80;99.90
54898;DHT22;40800;52.704;6.398;2022-10-17T11:35:39;17.70;99.90
54898;DHT22;40800;52.704;6.398;2022-10-17T11:38:47;17.40;99.90
54898;DHT22;40800;52.704;6.398;2022-10-17T11:44:02;17.90;99.90
54898;DHT22;40800;52.704;6.398;2022-10-17T11:46:29;17.10;99.90
54898;DHT22;40800;52.704;6.398;2022-10-17T11:51:29;18.00;99.90
54898;DHT22;40800;52.704;6.398;2022-10-17T11:54:18;17.80;99.90
54898;DHT22;40800;52.704;6.398;2022-10-17T11:59:52;17.20;99.90
54898;DHT22;40800;52.704;6.398;2022-10-17T12:02:49;17.90;99.90
54898;DHT22;40800;52.704;6.398;2022-10-17T12:08:17;17.20;99.90
54898;DHT22;40800;52.704;6.398;2022-10-17T12:11:02;18.10;99.90
54898;DHT22;40800;52.704;6.398;2022-10-17T12:16:35;18.40;99.90
54898;DHT22;40800;52.704;6.398;2022-10-17T12:18:44;18.20;99.90
54898;DHT22;40800;52.704;6.398;2022-10-17T12:21:10;18.20;99.90
54898;DHT22;40800;52.704;6.398;2022-10-17T12:23:36;18.30;99.90
54898;DHT22;40800;52.704;6.398;2022-10-17T12:26:07;17.20;99.90
54898;DHT22;40800;52.704;6.398;2022-10-17T12:33:54;17.30;99.90
54898;DHT22;40800;52.704;6.398;2022-10-17T13:00:34;17.40;99.90
54898;DHT22;40800;52.704;6.398;2022-10-17T13:03:04;18.10;99.90
54898;DHT22;40800;52.704;6.398;2022-10-17T13:05:33;17.70;99.90
54898;DHT22;40800;52.704;6.398;2022-10-17T13:08:02;17.20;99.90
54898;DHT22;40800;52.704;6.398;2022-10-17T13:10:32;17.00;99.90
54898;DHT22;40800;52.704;6.398;2022-10-17T13:15:50;17.10;99.90
54898;DHT22;40800;52.704;6.398;2022-10-17T13:18:22;18.10;99.90
54898;DHT22;40800;52.704;6.398;2022-10-17T13:21:05;16.90;99.90
54898;DHT22;40800;52.704;6.398;2022-10-17T13:23:33;16.70;99.90
54898;DHT22;40800;52.704;6.398;2022-10-17T13:26:26;17.10;99.90
54898;DHT22;40800;52.704;6.398;2022-10-17T13:29:03;16.30;99.90
54898;DHT22;40800;52.704;6.398;2022-10-17T13:31:32;17.00;99.90
54898;DHT22;40800;52.704;6.398;2022-10-17T13:34:01;15.90;99.90
54898;DHT22;40800;52.704;6.398;2022-10-17T13:36:27;15.90;99.90
54898;DHT22;40800;52.704;6.398;2022-10-17T13:38:54;15.90;99.90
54898;DHT22;40800;52.704;6.398;2022-10-17T13:41:27;16.90;99.90
54898;DHT22;40800;52.704;6.398;2022-10-17T13:43:54;16.80;99.90
54898;DHT22;40800;52.704;6.398;2022-10-17T13:46:30;16.80;99.90
54898;DHT22;40800;52.704;6.398;2022-10-17T13:48:57;15.60;99.90
54898;DHT22;40800;52.704;6.398;2022-10-17T13:51:24;15.70;99.90
54898;DHT22;40800;52.704;6.398;2022-10-17T13:53:50;15.70;99.90
54898;DHT22;40800;52.704;6.398;2022-10-17T13:56:19;16.50;99.90
54898;DHT22;40800;52.704;6.398;2022-10-17T13:58:51;15.50;99.90
54898;DHT22;40800;52.704;6.398;2022-10-17T14:01:18;16.50;99.90
54898;DHT22;40800;52.704;6.398;2022-10-17T14:03:46;15.40;99.90
54898;DHT22;40800;52.704;6.398;2022-10-17T14:06:23;16.60;99.90
54898;DHT22;40800;52.704;6.398;2022-10-17T14:09:37;16.30;99.90
54898;DHT22;40800;52.704;6.398;2022-10-17T14:11:42;15.70;99.90
54898;DHT22;40800;52.704;6.398;2022-10-17T14:14:27;15.70;99.90
54898;DHT22;40800;52.704;6.398;2022-10-17T14:16:53;16.50;99.90
54898;DHT22;40800;52.704;6.398;2022-10-17T14:19:26;15.90;99.90
54898;DHT22;40800;52.704;6.398;2022-10-17T14:24:48;16.40;99.90
54898;DHT22;40800;52.704;6.398;2022-10-17T14:29:57;15.70;99.90
54898;DHT22;40800;52.704;6.398;2022-10-17T14:32:26;16.00;99.90
54898;DHT22;40800;52.704;6.398;2022-10-17T14:34:55;15.50;99.90
54898;DHT22;40800;52.704;6.398;2022-10-17T14:37:35;15.60;99.90
54898;DHT22;40800;52.704;6.398;2022-10-17T14:40:04;15.60;99.90
54898;DHT22;40800;52.704;6.398;2022-10-17T14:42:30;16.20;99.90
54898;DHT22;40800;52.704;6.398;2022-10-17T14:45:06;16.30;99.90
54898;DHT22;40800;52.704;6.398;2022-10-17T14:47:33;15.40;99.90
54898;DHT22;40800;52.704;6.398;2022-10-17T14:50:24;16.30;99.90
54898;DHT22;40800;52.704;6.398;2022-10-17T14:55:27;16.50;99.90
54898;DHT22;40800;52.704;6.398;2022-10-17T14:57:53;16.50;99.90
54898;DHT22;40800;52.704;6.398;2022-10-17T15:00:20;16.30;99.90
54898;DHT22;40800;52.704;6.398;2022-10-17T15:02:47;16.50;99.90
54898;DHT22;40800;52.704;6.398;2022-10-17T15:05:14;16.50;99.90
54898;DHT22;40800;52.704;6.398;2022-10-17T15:07:40;16.50;99.90
54898;DHT22;40800;52.704;6.398;2022-10-17T15:10:09;15.90;99.90
54898;DHT22;40800;52.704;6.398;2022-10-17T15:12:42;16.50;99.90
54898;DHT22;40800;52.704;6.398;2022-10-17T15:15:08;15.80;99.90
54898;DHT22;40800;52.704;6.398;2022-10-17T15:17:33;16.60;99.90
54898;DHT22;40800;52.704;6.398;2022-10-17T15:19:59;16.10;99.90
54898;DHT22;40800;52.704;6.398;2022-10-17T15:22:25;15.90;99.90
54898;DHT22;40800;52.704;6.398;2022-10-17T15:24:51;16.10;99.90
54898;DHT22;40800;52.704;6.398;2022-10-17T15:27:19;17.10;99.90
54898;DHT22;40800;52.704;6.398;2022-10-17T15:29:45;16.70;99.90
54898;DHT22;40800;52.704;6.398;2022-10-17T15:32:11;16.50;99.90
54898;DHT22;40800;52.704;6.398;2022-10-17T15:34:37;16.90;99.90
54898;DHT22;40800;52.704;6.398;2022-10-17T15:37:04;16.90;99.90
54898;DHT22;40800;52.704;6.398;2022-10-17T15:39:30;16.60;99.90
54898;DHT22;40800;52.704;6.398;2022-10-17T15:41:56;16.80;99.90
54898;DHT22;40800;52.704;6.398;2022-10-17T15:44:21;16.00;99.90
54898;DHT22;40800;52.704;6.398;2022-10-17T15:46:47;16.20;99.90
54898;DHT22;40800;52.704;6.398;2022-10-17T15:49:15;15.80;99.90
54898;DHT22;40800;52.704;6.398;2022-10-17T15:51:42;16.30;99.90
54898;DHT22;40800;52.704;6.398;2022-10-17T15:54:08;15.80;99.90
54898;DHT22;40800;52.704;6.398;2022-10-17T15:56:38;16.60;99.90
54898;DHT22;40800;52.704;6.398;2022-10-17T15:59:15;16.30;99.90
54898;DHT22;40800;52.704;6.398;2022-10-17T16:01:43;16.50;99.90
54898;DHT22;40800;52.704;6.398;2022-10-17T16:04:10;16.50;99.90
54898;DHT22;40800;52.704;6.398;2022-10-17T16:06:38;16.30;99.90
54898;DHT22;40800;52.704;6.398;2022-10-17T16:09:03;16.20;99.90
54898;DHT22;40800;52.704;6.398;2022-10-17T16:11:34;15.60;99.90
54898;DHT22;40800;52.704;6.398;2022-10-17T16:14:03;15.50;99.90
54898;DHT22;40800;52.704;6.398;2022-10-17T16:16:29;15.50;99.90
54898;DHT22;40800;52.704;6.398;2022-10-17T16:18:55;15.70;99.90
54898;DHT22;40800;52.704;6.398;2022-10-17T16:21:27;16.00;99.90
54898;DHT22;40800;52.704;6.398;2022-10-17T16:23:54;15.60;99.90
54898;DHT22;40800;52.704;6.398;2022-10-17T16:26:20;16.20;99.90
54898;DHT22;40800;52.704;6.398;2022-10-17T16:28:45;15.30;99.90
54898;DHT22;40800;52.704;6.398;2022-10-17T16:31:20;15.30;99.90
54898;DHT22;40800;52.704;6.398;2022-10-17T16:33:47;15.30;99.90
54898;DHT22;40800;52.704;6.398;2022-10-17T16:36:13;16.20;99.90
54898;DHT22;40800;52.704;6.398;2022-10-17T16:38:39;15.10;99.90
54898;DHT22;40800;52.704;6.398;2022-10-17T16:41:16;15.30;99.90
54898;DHT22;40800;52.704;6.398;2022-10-17T16:43:43;15.90;99.90
54898;DHT22;40800;52.704;6.398;2022-10-17T16:46:09;15.10;99.90
54898;DHT22;40800;52.704;6.398;2022-10-17T16:48:34;15.50;99.90
54898;DHT22;40800;52.704;6.398;2022-10-17T16:51:00;15.80;99.90
54898;DHT22;40800;52.704;6.398;2022-10-17T16:53:26;15.00;99.90
54898;DHT22;40800;52.704;6.398;2022-10-17T16:55:59;16.10;99.90
54898;DHT22;40800;52.704;6.398;2022-10-17T16:58:27;15.00;99.90
54898;DHT22;40800;52.704;6.398;2022-10-17T17:00:58;15.10;99.90
54898;DHT22;40800;52.704;6.398;2022-10-17T17:03:24;15.60;99.90
54898;DHT22;40800;52.704;6.398;2022-10-17T17:05:50;14.90;99.90
54898;DHT22;40800;52.704;6.398;2022-10-17T17:08:16;14.90;99.90
54898;DHT22;40800;52.704;6.398;2022-10-17T17:10:46;14.90;99.90
54898;DHT22;40800;52.704;6.398;2022-10-17T17:13:14;15.00;99.90
54898;DHT22;40800;52.704;6.398;2022-10-17T17:15:40;15.20;99.90
54898;DHT22;40800;52.704;6.398;2022-10-17T17:18:05;14.80;99.90
54898;DHT22;40800;52.704;6.398;2022-10-17T17:20:32;15.20;99.90
54898;DHT22;40800;52.704;6.398;2022-10-17T17:22:57;15.00;99.90
54898;DHT22;40800;52.704;6.398;2022-10-17T17:25:23;15.40;99.90
54898;DHT22;40800;52.704;6.398;2022-10-17T17:27:49;14.80;99.90
54898;DHT22;40800;52.704;6.398;2022-10-17T17:30:15;15.50;99.90
54898;DHT22;40800;52.704;6.398;2022-10-17T17:32:40;15.80;99.90
54898;DHT22;40800;52.704;6.398;2022-10-17T17:35:06;15.60;99.90
54898;DHT22;40800;52.704;6.398;2022-10-17T17:37:32;15.80;99.90
54898;DHT22;40800;52.704;6.398;2022-10-17T17:39:58;15.70;99.90